createdAt,value
2023-03-22T00:00:30.021Z,646.60
2023-03-22T00:02:58.405Z,607.00
2023-03-22T00:05:26.761Z,631.15
2023-03-22T00:07:57.943Z,641.08
2023-03-22T00:10:27.474Z,638.00
2023-03-22T00:12:57.223Z,577.88
2023-03-22T00:15:25.570Z,610.35
2023-03-22T00:17:54.079Z,547.05
2023-03-22T00:20:23.643Z,665.78
2023-03-22T00:22:52.069Z,582.75
2023-03-22T00:25:20.649Z,630.25
2023-03-22T00:27:49.075Z,568.47
2023-03-22T00:30:19.304Z,627.22
2023-03-22T00:32:47.609Z,609.55
2023-03-22T00:35:15.982Z,625.13
2023-03-22T00:37:44.342Z,584.45
2023-03-22T00:40:15.108Z,621.20
2023-03-22T00:42:44.151Z,615.10
2023-03-22T00:45:13.635Z,629.60
2023-03-22T00:47:43.452Z,619.97
2023-03-22T00:50:12.384Z,593.90
2023-03-22T00:52:40.948Z,634.60
2023-03-22T00:55:09.671Z,590.78
2023-03-22T00:57:38.041Z,582.00
2023-03-22T01:00:10.964Z,589.50
2023-03-22T01:02:39.975Z,619.65
2023-03-22T01:05:15.873Z,617.97
2023-03-22T01:07:44.789Z,645.50
2023-03-22T01:10:13.411Z,583.22
2023-03-22T01:12:41.697Z,608.42
2023-03-22T01:15:10.842Z,590.72
2023-03-22T01:17:39.147Z,591.45
2023-03-22T01:20:11.159Z,591.22
2023-03-22T01:22:39.480Z,607.38
2023-03-22T01:25:08.764Z,577.47
2023-03-22T01:27:37.101Z,568.60
2023-03-22T01:30:06.526Z,588.75
2023-03-22T01:32:35.258Z,532.35
2023-03-22T01:35:03.602Z,557.83
2023-03-22T01:37:33.430Z,569.38
2023-03-22T01:40:01.951Z,589.60
2023-03-22T01:42:30.728Z,540.03
2023-03-22T01:45:28.674Z,586.08
2023-03-22T01:47:58.711Z,522.70
2023-03-22T01:50:27.716Z,531.25
2023-03-22T01:52:59.269Z,536.38
2023-03-22T01:55:28.148Z,575.53
2023-03-22T01:57:56.926Z,546.75
2023-03-22T02:00:25.252Z,550.67
2023-03-22T02:02:54.411Z,532.50
2023-03-22T02:05:23.214Z,586.97
2023-03-22T02:07:52.097Z,533.60
2023-03-22T02:10:25.444Z,600.38
2023-03-22T02:13:04.442Z,631.92
2023-03-22T02:15:36.592Z,560.90
2023-03-22T02:18:17.411Z,566.38
2023-03-22T02:21:21.422Z,546.58
2023-03-22T02:24:20.697Z,522.28
2023-03-22T02:27:00.234Z,545.50
2023-03-22T02:29:33.913Z,552.05
2023-03-22T02:32:35.111Z,517.00
2023-03-22T02:35:23.375Z,518.13
2023-03-22T02:38:06.291Z,525.65
2023-03-22T02:40:41.116Z,527.63
2023-03-22T02:43:16.119Z,514.90
2023-03-22T02:45:48.098Z,541.50
2023-03-22T02:48:19.445Z,601.65
2023-03-22T02:50:53.604Z,594.10
2023-03-22T02:53:23.849Z,546.08
2023-03-22T02:55:57.391Z,546.03
2023-03-22T02:58:28.043Z,552.67
2023-03-22T03:01:00.400Z,554.35
2023-03-22T03:03:30.820Z,532.60
2023-03-22T03:06:01.856Z,610.17
2023-03-22T03:08:30.941Z,545.97
2023-03-22T03:11:02.460Z,553.22
2023-03-22T03:13:30.941Z,531.03
2023-03-22T03:16:01.160Z,515.20
2023-03-22T03:18:40.623Z,565.70
2023-03-22T03:21:17.961Z,585.80
2023-03-22T03:23:50.758Z,536.53
2023-03-22T03:26:28.225Z,538.25
2023-03-22T03:29:00.745Z,528.95
2023-03-22T03:31:36.173Z,578.60
2023-03-22T03:34:10.429Z,517.47
2023-03-22T03:36:42.800Z,646.60
2023-03-22T03:39:13.562Z,538.35
2023-03-22T03:41:44.879Z,523.40
2023-03-22T03:44:13.432Z,546.15
2023-03-22T03:46:42.282Z,500.95
2023-03-22T03:49:12.410Z,587.58
2023-03-22T03:51:48.798Z,543.55
2023-03-22T03:54:17.230Z,548.28
2023-03-22T03:56:48.302Z,555.63
2023-03-22T03:59:16.927Z,601.10
2023-03-22T04:01:51.610Z,533.65
2023-03-22T04:04:26.518Z,537.58
2023-03-22T04:06:56.604Z,555.80
2023-03-22T04:09:27.169Z,547.40
2023-03-22T04:11:57.652Z,537.10
2023-03-22T04:14:27.063Z,539.45
2023-03-22T04:16:56.131Z,533.05
2023-03-22T04:19:24.822Z,533.53
2023-03-22T04:21:53.648Z,546.47
2023-03-22T04:24:22.540Z,562.67
2023-03-22T04:26:52.300Z,556.58
2023-03-22T04:29:22.942Z,529.88
2023-03-22T04:31:53.044Z,526.13
2023-03-22T04:34:21.558Z,580.45
2023-03-22T04:36:50.646Z,527.97
2023-03-22T04:39:19.026Z,532.53
2023-03-22T04:41:47.497Z,557.78
2023-03-22T04:44:15.954Z,555.13
2023-03-22T04:46:45.820Z,582.65
2023-03-22T04:49:14.405Z,545.33
2023-03-22T04:51:42.842Z,520.90
2023-03-22T04:54:11.361Z,576.35
2023-03-22T04:56:39.752Z,540.65
2023-03-22T04:59:08.408Z,566.45
2023-03-22T05:01:37.583Z,572.10
2023-03-22T05:04:07.586Z,539.22
2023-03-22T05:06:35.995Z,527.17
2023-03-22T05:09:04.484Z,513.30
2023-03-22T05:11:32.885Z,533.53
2023-03-22T05:14:01.425Z,507.80
2023-03-22T05:16:29.910Z,531.47
2023-03-22T05:18:58.286Z,487.83
2023-03-22T05:21:29.304Z,496.55
2023-03-22T05:23:59.313Z,505.27
2023-03-22T05:26:28.776Z,494.98
2023-03-22T05:28:58.434Z,531.53
2023-03-22T05:31:28.714Z,557.22
2023-03-22T05:33:57.958Z,583.05
2023-03-22T05:36:30.304Z,517.25
2023-03-22T05:39:07.719Z,563.03
2023-03-22T05:41:36.964Z,580.83
2023-03-22T05:44:06.498Z,520.17
2023-03-22T05:46:35.037Z,521.85
2023-03-22T05:49:03.395Z,554.00
2023-03-22T05:51:33.355Z,538.40
2023-03-22T05:54:01.745Z,549.45
2023-03-22T05:56:30.162Z,625.28
2023-03-22T05:59:02.259Z,631.67
2023-03-22T06:01:30.918Z,486.13
2023-03-22T06:03:59.504Z,524.08
2023-03-22T06:06:28.583Z,457.10
2023-03-22T06:09:10.648Z,487.40
2023-03-22T06:11:44.819Z,411.35
2023-03-22T06:14:13.557Z,445.13
2023-03-22T06:16:42.010Z,474.90
2023-03-22T06:19:10.495Z,465.02
2023-03-22T06:21:39.091Z,348.10
2023-03-22T06:24:09.180Z,436.92
2023-03-22T06:26:37.591Z,410.20
2023-03-22T06:29:06.040Z,613.42
2023-03-22T06:31:34.397Z,355.70
2023-03-22T06:34:06.376Z,370.73
2023-03-22T06:36:34.820Z,400.02
2023-03-22T06:39:05.134Z,356.02
2023-03-22T06:41:35.153Z,456.48
2023-03-22T06:44:03.937Z,469.75
2023-03-22T06:46:32.397Z,363.63
2023-03-22T06:49:01.014Z,332.15
2023-03-22T06:51:29.525Z,334.17
2023-03-22T06:53:57.911Z,367.60
2023-03-22T06:56:26.980Z,450.73
2023-03-22T06:58:58.138Z,355.38
2023-03-22T07:01:26.597Z,435.35
2023-03-22T07:03:55.175Z,324.90
2023-03-22T07:06:23.542Z,339.00
2023-03-22T07:08:52.228Z,454.77
2023-03-22T07:11:20.711Z,333.73
2023-03-22T07:13:49.242Z,363.70
2023-03-22T07:16:20.088Z,404.83
2023-03-22T07:18:54.508Z,352.92
2023-03-22T07:21:22.899Z,460.77
2023-03-22T07:23:51.369Z,357.33
2023-03-22T07:26:19.876Z,368.63
2023-03-22T07:28:48.396Z,457.40
2023-03-22T07:31:18.349Z,433.23
2023-03-22T07:33:52.319Z,363.67
2023-03-22T07:36:23.976Z,375.17
2023-03-22T07:38:53.026Z,491.17
2023-03-22T07:41:23.947Z,399.70
2023-03-22T07:43:58.280Z,418.35
2023-03-22T07:46:32.126Z,417.05
2023-03-22T07:49:00.773Z,417.50
2023-03-22T07:51:30.019Z,418.60
2023-03-22T07:53:58.385Z,455.58
2023-03-22T07:56:26.776Z,449.77
2023-03-22T07:58:55.177Z,445.02
2023-03-22T08:01:24.866Z,426.85
2023-03-22T08:03:55.120Z,495.85
2023-03-22T08:06:23.548Z,611.30
2023-03-22T08:08:52.822Z,488.67
2023-03-22T08:11:21.295Z,494.58
2023-03-22T08:13:49.789Z,727.08
2023-03-22T08:16:18.292Z,475.10
2023-03-22T08:18:46.755Z,522.08
2023-03-22T08:21:16.775Z,501.10
2023-03-22T08:23:45.399Z,471.35
2023-03-22T08:26:14.094Z,460.45
2023-03-22T08:28:42.482Z,509.55
2023-03-22T08:31:15.748Z,468.25
2023-03-22T08:33:44.386Z,543.47
2023-03-22T08:36:16.790Z,627.47
2023-03-22T08:38:46.111Z,574.88
2023-03-22T08:41:15.885Z,569.53
2023-03-22T08:43:44.410Z,586.45
2023-03-22T08:46:13.085Z,500.65
2023-03-22T08:48:41.690Z,515.90
2023-03-22T08:51:10.650Z,585.97
2023-03-22T08:53:40.419Z,486.60
2023-03-22T08:56:09.888Z,506.70
2023-03-22T08:58:38.349Z,521.08
2023-03-22T09:01:07.272Z,520.33
2023-03-22T09:03:35.692Z,484.85
2023-03-22T09:06:04.175Z,610.17
2023-03-22T09:08:32.552Z,568.75
2023-03-22T09:11:02.875Z,568.80
2023-03-22T09:13:31.753Z,631.28
2023-03-22T09:16:00.289Z,562.15
2023-03-22T09:18:30.947Z,603.05
2023-03-22T09:20:59.404Z,887.65
2023-03-22T09:23:29.080Z,622.45
2023-03-22T09:25:57.638Z,506.38
2023-03-22T09:28:27.505Z,606.28
2023-03-22T09:30:56.099Z,536.50
2023-03-22T09:33:25.164Z,606.72
2023-03-22T09:35:55.514Z,587.20
2023-03-22T09:38:24.115Z,484.83
2023-03-22T09:41:00.388Z,618.42
2023-03-22T09:43:34.918Z,512.35
2023-03-22T09:46:04.704Z,638.90
2023-03-22T09:48:34.514Z,566.13
2023-03-22T09:51:05.000Z,521.42
2023-03-22T09:53:34.621Z,440.67
2023-03-22T09:56:09.915Z,449.10
2023-03-22T09:58:44.467Z,500.10
2023-03-22T10:01:20.329Z,547.20
2023-03-22T10:04:14.201Z,424.55
2023-03-22T10:06:46.220Z,474.98
2023-03-22T10:09:17.759Z,631.47
2023-03-22T10:11:48.595Z,479.17
2023-03-22T10:14:30.654Z,551.97
2023-03-22T10:17:03.623Z,516.40
2023-03-22T10:19:36.289Z,497.50
2023-03-22T10:22:06.479Z,464.33
2023-03-22T10:24:37.194Z,480.23
2023-03-22T10:27:12.927Z,621.20
2023-03-22T10:29:45.416Z,608.47
2023-03-22T10:32:17.924Z,601.42
2023-03-22T10:34:47.457Z,481.58
2023-03-22T10:37:17.836Z,462.35
2023-03-22T10:39:49.712Z,571.40
2023-03-22T10:42:20.768Z,460.25
2023-03-22T10:44:53.227Z,389.02
2023-03-22T10:47:28.887Z,506.95
2023-03-22T10:49:58.392Z,532.28
2023-03-22T10:52:41.473Z,431.90
2023-03-22T10:55:13.325Z,414.40
2023-03-22T10:57:43.088Z,400.75
2023-03-22T11:00:18.485Z,439.65
2023-03-22T11:02:52.409Z,480.98
2023-03-22T11:05:24.778Z,364.20
2023-03-22T11:07:53.536Z,308.13
2023-03-22T11:10:28.529Z,506.35
2023-03-22T11:13:13.356Z,403.38
2023-03-22T11:15:50.329Z,390.10
2023-03-22T11:18:19.328Z,314.20
2023-03-22T11:21:00.432Z,468.90
2023-03-22T11:23:30.353Z,430.70
2023-03-22T11:26:01.791Z,419.33
2023-03-22T11:28:34.630Z,368.23
2023-03-22T11:31:12.512Z,404.40
2023-03-22T11:33:55.605Z,250.85
2023-03-22T11:36:24.350Z,391.45
2023-03-22T11:38:59.277Z,266.15
2023-03-22T11:41:29.516Z,260.85
2023-03-22T11:43:59.699Z,267.00
2023-03-22T11:46:30.743Z,251.05
2023-03-22T11:49:01.821Z,266.88
2023-03-22T11:51:33.403Z,264.25
2023-03-22T11:54:08.508Z,275.05
2023-03-22T11:56:42.196Z,383.05
2023-03-22T11:59:15.916Z,252.70
2023-03-22T12:01:49.703Z,287.55
2023-03-22T12:04:22.469Z,324.67
2023-03-22T12:06:51.300Z,279.10
2023-03-22T12:09:28.872Z,308.52
2023-03-22T12:11:59.630Z,276.48
2023-03-22T12:14:30.928Z,281.25
2023-03-22T12:17:14.454Z,265.83
2023-03-22T12:19:55.739Z,264.55
2023-03-22T12:22:37.016Z,268.65
2023-03-22T12:25:13.424Z,277.63
2023-03-22T12:27:53.275Z,287.13
2023-03-22T12:30:26.454Z,345.00
2023-03-22T12:33:00.273Z,309.48
2023-03-22T12:35:31.022Z,302.67
2023-03-22T12:38:02.408Z,325.58
2023-03-22T12:40:34.592Z,329.30
2023-03-22T12:43:07.352Z,368.88
2023-03-22T12:45:40.335Z,378.58
2023-03-22T12:48:16.025Z,321.75
2023-03-22T12:50:46.826Z,312.55
2023-03-22T12:53:16.944Z,360.27
2023-03-22T12:55:46.899Z,393.02
2023-03-22T12:58:18.601Z,360.83
2023-03-22T13:00:51.432Z,368.60
2023-03-22T13:03:28.544Z,342.13
2023-03-22T13:06:08.428Z,332.48
2023-03-22T13:09:17.002Z,311.88
2023-03-22T13:11:46.987Z,338.40
2023-03-22T13:14:57.575Z,316.20
2023-03-22T13:17:50.365Z,348.63
2023-03-22T13:20:31.476Z,279.20
2023-03-22T13:23:02.798Z,308.63
2023-03-22T13:25:37.213Z,295.60
2023-03-22T13:28:21.631Z,302.17
2023-03-22T13:30:52.467Z,291.45
2023-03-22T13:33:25.524Z,340.20
2023-03-22T13:35:58.705Z,284.55
2023-03-22T13:38:28.631Z,280.52
2023-03-22T13:41:02.799Z,276.88
2023-03-22T13:43:33.411Z,299.02
2023-03-22T13:46:16.166Z,303.83
2023-03-22T13:48:54.521Z,311.70
2023-03-22T13:51:31.782Z,329.35
2023-03-22T13:54:04.751Z,325.08
2023-03-22T13:56:47.881Z,425.10
2023-03-22T13:59:21.753Z,316.05
2023-03-22T14:01:52.680Z,289.25
2023-03-22T14:04:24.827Z,316.73
2023-03-22T14:06:57.460Z,303.48
2023-03-22T14:09:30.823Z,309.40
2023-03-22T14:12:05.450Z,312.37
2023-03-22T14:14:37.849Z,311.35
2023-03-22T14:17:15.582Z,312.90
2023-03-22T14:19:44.062Z,276.38
